createdAt,value
2018-12-23T00:01:45.220Z,16.37
2018-12-23T00:04:16.611Z,16.87
2018-12-23T00:06:48.289Z,16.57
2018-12-23T00:09:20.180Z,15.93
2018-12-23T00:11:52.024Z,15.23
2018-12-23T00:14:23.916Z,27.33
2018-12-23T00:16:55.539Z,24.30
2018-12-23T00:19:27.171Z,21.13
2018-12-23T00:21:59.433Z,22.73
2018-12-23T00:24:31.817Z,19.90
2018-12-23T00:27:03.243Z,18.07
2018-12-23T00:29:34.479Z,19.20
2018-12-23T00:32:05.858Z,16.90
2018-12-23T00:34:38.056Z,13.60
2018-12-23T00:37:09.291Z,17.53
2018-12-23T00:39:40.691Z,13.83
2018-12-23T00:42:11.827Z,13.57
2018-12-23T00:44:43.070Z,13.60
2018-12-23T00:47:14.064Z,14.47
2018-12-23T00:49:45.061Z,14.07
2018-12-23T00:52:16.903Z,14.77
2018-12-23T00:54:48.105Z,14.20
2018-12-23T00:57:19.362Z,15.10
2018-12-23T00:59:51.282Z,13.90
2018-12-23T01:02:22.461Z,13.23
2018-12-23T01:04:53.538Z,14.50
2018-12-23T01:07:25.071Z,15.33
2018-12-23T01:09:56.420Z,13.23
2018-12-23T01:12:27.600Z,14.83
2018-12-23T01:14:58.802Z,14.63
2018-12-23T01:17:29.961Z,14.30
2018-12-23T01:20:01.333Z,13.17
2018-12-23T01:22:32.705Z,12.57
2018-12-23T01:25:04.061Z,13.77
2018-12-23T01:27:35.153Z,12.57
2018-12-23T01:30:07.303Z,13.23
2018-12-23T01:32:38.561Z,13.30
2018-12-23T01:35:10.519Z,13.30
2018-12-23T01:37:42.114Z,11.87
2018-12-23T01:40:14.494Z,17.40
2018-12-23T01:42:45.599Z,14.27
2018-12-23T01:45:17.512Z,18.07
2018-12-23T01:47:48.825Z,15.70
2018-12-23T01:50:19.992Z,14.37
2018-12-23T01:52:50.846Z,15.17
2018-12-23T01:55:21.630Z,13.90
2018-12-23T01:57:52.426Z,13.50
2018-12-23T02:00:23.400Z,14.10
2018-12-23T02:02:54.262Z,13.43
2018-12-23T02:05:24.937Z,11.23
2018-12-23T02:07:55.656Z,12.93
2018-12-23T02:10:26.368Z,12.80
2018-12-23T02:12:57.283Z,10.90
2018-12-23T02:15:28.113Z,12.33
2018-12-23T02:17:58.949Z,11.67
2018-12-23T02:20:29.741Z,10.60
2018-12-23T02:23:00.587Z,11.20
2018-12-23T02:25:32.036Z,11.83
2018-12-23T02:28:02.915Z,10.67
2018-12-23T02:30:33.795Z,10.33
2018-12-23T02:33:04.735Z,11.97
2018-12-23T02:35:35.822Z,10.73
2018-12-23T02:38:06.735Z,9.80
2018-12-23T02:40:37.564Z,9.80
2018-12-23T02:43:08.276Z,10.30
2018-12-23T02:45:39.035Z,9.97
2018-12-23T02:48:09.947Z,10.07
2018-12-23T02:50:40.833Z,10.30
2018-12-23T02:53:11.559Z,9.67
2018-12-23T02:55:42.411Z,10.60
2018-12-23T02:58:13.283Z,9.70
2018-12-23T03:00:44.148Z,9.73
2018-12-23T03:03:14.925Z,9.97
2018-12-23T03:05:45.639Z,9.00
2018-12-23T03:08:16.527Z,8.77
2018-12-23T03:10:47.166Z,9.07
2018-12-23T03:13:17.954Z,8.87
2018-12-23T03:15:48.915Z,9.27
2018-12-23T03:18:19.532Z,9.37
2018-12-23T03:20:50.148Z,9.20
2018-12-23T03:23:21.014Z,9.37
2018-12-23T03:25:51.710Z,9.93
2018-12-23T03:28:22.303Z,9.97
2018-12-23T03:30:53.380Z,9.60
2018-12-23T03:33:24.637Z,9.63
2018-12-23T03:35:55.616Z,9.73
2018-12-23T03:38:26.433Z,10.70
2018-12-23T03:40:57.452Z,10.20
2018-12-23T03:43:28.280Z,9.90
2018-12-23T03:45:59.426Z,10.53
2018-12-23T03:48:30.375Z,9.97
2018-12-23T03:51:01.167Z,10.57
2018-12-23T03:53:31.989Z,10.93
2018-12-23T03:56:02.895Z,11.03
2018-12-23T03:58:33.802Z,10.87
2018-12-23T04:01:04.714Z,11.10
2018-12-23T04:03:35.512Z,10.83
2018-12-23T04:06:06.339Z,11.53
2018-12-23T04:08:37.739Z,12.03
2018-12-23T04:11:08.421Z,11.50
2018-12-23T04:13:40.024Z,12.10
2018-12-23T04:16:10.978Z,12.50
2018-12-23T04:18:41.899Z,12.17
2018-12-23T04:21:12.460Z,12.93
2018-12-23T04:23:43.300Z,13.90
2018-12-23T04:26:14.048Z,13.63
2018-12-23T04:28:44.808Z,13.83
2018-12-23T04:31:16.643Z,12.37
2018-12-23T04:33:47.531Z,13.17
2018-12-23T04:36:18.153Z,14.13
2018-12-23T04:38:49.277Z,14.10
2018-12-23T04:41:20.074Z,12.60
2018-12-23T04:43:50.945Z,14.00
2018-12-23T04:46:21.846Z,14.00
2018-12-23T04:48:52.586Z,13.03
2018-12-23T04:51:23.369Z,12.13
2018-12-23T04:53:54.005Z,12.53
2018-12-23T04:56:24.830Z,13.17
2018-12-23T04:58:55.467Z,14.13
2018-12-23T05:01:26.518Z,15.27
2018-12-23T05:03:57.317Z,15.30
2018-12-23T05:06:28.177Z,16.67
2018-12-23T05:08:58.845Z,14.90
2018-12-23T05:11:29.624Z,15.43
2018-12-23T05:14:00.394Z,15.13
2018-12-23T05:16:31.231Z,12.77
2018-12-23T05:19:01.893Z,14.53
2018-12-23T05:21:32.883Z,12.87
2018-12-23T05:24:03.757Z,12.40
2018-12-23T05:26:34.658Z,12.87
2018-12-23T05:29:05.731Z,12.63
2018-12-23T05:31:36.573Z,10.63
2018-12-23T05:34:07.504Z,13.20
2018-12-23T05:36:38.128Z,12.63
2018-12-23T05:39:09.670Z,13.40
2018-12-23T05:41:40.509Z,12.50
2018-12-23T05:44:11.168Z,12.07
2018-12-23T05:46:42.059Z,13.47
2018-12-23T05:49:12.845Z,13.57
2018-12-23T05:51:43.586Z,14.07
2018-12-23T05:54:14.469Z,14.13
2018-12-23T05:56:45.471Z,16.47
2018-12-23T05:59:16.265Z,18.90
2018-12-23T06:01:47.307Z,16.73
2018-12-23T06:04:18.148Z,19.67
2018-12-23T06:06:49.168Z,16.57
2018-12-23T06:09:19.904Z,16.20
2018-12-23T06:11:51.455Z,19.00
2018-12-23T06:14:22.594Z,17.63
2018-12-23T06:16:53.527Z,17.27
2018-12-23T06:19:24.673Z,18.50
2018-12-23T06:21:55.512Z,19.90
2018-12-23T06:24:26.467Z,25.27
2018-12-23T06:26:57.630Z,23.93
2018-12-23T06:29:28.286Z,18.23
2018-12-23T06:31:59.079Z,21.07
2018-12-23T06:34:29.691Z,19.00
2018-12-23T06:37:00.497Z,20.27
2018-12-23T06:39:31.581Z,17.47
2018-12-23T06:42:02.671Z,17.17
2018-12-23T06:44:33.712Z,17.00
2018-12-23T06:47:04.573Z,19.13
2018-12-23T06:49:36.346Z,25.33
2018-12-23T06:52:07.443Z,24.30
2018-12-23T06:54:38.482Z,23.77
2018-12-23T06:57:09.441Z,28.73
2018-12-23T06:59:40.428Z,26.30
2018-12-23T07:02:13.381Z,26.70
2018-12-23T07:04:45.473Z,34.87
2018-12-23T07:07:18.707Z,30.50
2018-12-23T07:09:49.291Z,30.63
2018-12-23T07:12:20.141Z,31.10
2018-12-23T07:14:51.057Z,22.43
2018-12-23T07:17:22.369Z,27.57
2018-12-23T07:19:53.435Z,25.03
2018-12-23T07:22:24.309Z,23.90
2018-12-23T07:24:55.301Z,23.97
2018-12-23T07:27:26.087Z,30.00
2018-12-23T07:29:57.208Z,23.73
2018-12-23T07:32:28.255Z,22.70
2018-12-23T07:34:59.700Z,23.00
2018-12-23T07:37:30.527Z,26.50
2018-12-23T07:40:02.037Z,28.13
2018-12-23T07:42:33.078Z,29.87
2018-12-23T07:45:04.923Z,22.20
2018-12-23T07:47:36.177Z,21.00
2018-12-23T07:50:07.827Z,22.27
2018-12-23T07:52:39.020Z,21.60
2018-12-23T07:55:10.104Z,28.63
2018-12-23T07:57:41.237Z,27.63
2018-12-23T08:00:12.803Z,27.07
2018-12-23T08:02:43.708Z,24.90
2018-12-23T08:05:14.543Z,21.03
2018-12-23T08:07:45.620Z,22.60
2018-12-23T08:10:16.901Z,21.67
2018-12-23T08:12:48.422Z,17.57
2018-12-23T08:15:20.464Z,16.07
2018-12-23T08:17:51.750Z,14.60
2018-12-23T08:20:23.085Z,15.60
2018-12-23T08:22:54.690Z,18.93
2018-12-23T08:25:26.509Z,19.43
2018-12-23T08:27:58.001Z,17.70
2018-12-23T08:30:30.605Z,17.20
2018-12-23T08:33:02.450Z,16.90
2018-12-23T08:35:35.433Z,17.73
2018-12-23T08:38:07.678Z,17.37
2018-12-23T08:40:40.795Z,14.60
2018-12-23T08:43:14.311Z,14.47
2018-12-23T08:45:47.681Z,14.73
2018-12-23T08:48:19.039Z,18.47
2018-12-23T08:50:51.365Z,15.30
2018-12-23T08:53:23.190Z,14.90
2018-12-23T08:55:55.100Z,18.63
2018-12-23T08:58:26.464Z,17.43
2018-12-23T09:00:57.582Z,16.23
2018-12-23T09:03:29.359Z,18.30
2018-12-23T09:06:00.670Z,15.10
2018-12-23T09:08:33.116Z,16.27
2018-12-23T09:11:13.864Z,16.23
2018-12-23T09:13:46.581Z,13.70
2018-12-23T09:16:18.157Z,14.33
2018-12-23T09:18:50.048Z,13.77
2018-12-23T09:21:22.015Z,12.97
2018-12-23T09:23:53.459Z,14.27
2018-12-23T09:26:24.478Z,13.33
2018-12-23T09:28:56.829Z,12.50
2018-12-23T09:31:27.865Z,12.50
2018-12-23T09:33:59.511Z,13.00
2018-12-23T09:36:31.208Z,14.37
2018-12-23T09:39:01.978Z,11.17
2018-12-23T09:41:34.047Z,12.73
2018-12-23T09:44:05.027Z,13.73
2018-12-23T09:46:36.530Z,12.27
2018-12-23T09:49:07.511Z,10.57
2018-12-23T09:51:38.996Z,12.90
2018-12-23T09:54:10.794Z,12.87
2018-12-23T09:56:42.164Z,11.43
2018-12-23T09:59:13.685Z,11.63
2018-12-23T10:01:45.921Z,11.03
2018-12-23T10:04:17.444Z,10.67
2018-12-23T10:06:49.797Z,12.30
2018-12-23T10:09:21.948Z,12.07
2018-12-23T10:11:53.180Z,11.33
2018-12-23T10:14:24.472Z,12.63
2018-12-23T10:16:56.366Z,9.27
2018-12-23T10:19:28.156Z,8.70
2018-12-23T10:21:59.680Z,11.20
2018-12-23T10:24:33.992Z,11.40
2018-12-23T10:27:05.497Z,15.37
2018-12-23T10:29:36.719Z,10.47
2018-12-23T10:32:08.218Z,9.40
2018-12-23T10:34:39.337Z,10.67
2018-12-23T10:37:11.260Z,9.97
2018-12-23T10:39:42.766Z,9.23
2018-12-23T10:42:14.188Z,9.40
2018-12-23T10:44:45.836Z,9.73
2018-12-23T10:47:17.740Z,10.87
2018-12-23T10:49:50.092Z,9.17
2018-12-23T10:52:22.196Z,9.37
2018-12-23T10:54:53.215Z,10.20
2018-12-23T10:57:24.298Z,10.37
2018-12-23T10:59:55.506Z,9.63
2018-12-23T11:02:27.385Z,8.27
2018-12-23T11:04:59.356Z,8.50
2018-12-23T11:07:31.847Z,9.00
2018-12-23T11:10:03.701Z,7.83
2018-12-23T11:12:36.676Z,7.87
2018-12-23T11:15:11.655Z,8.17
2018-12-23T11:17:43.880Z,8.83
2018-12-23T11:20:16.100Z,8.57
2018-12-23T11:22:48.686Z,8.07
2018-12-23T11:25:20.839Z,8.23
2018-12-23T11:27:53.673Z,9.23
2018-12-23T11:30:25.561Z,9.13
2018-12-23T11:32:57.245Z,6.87
2018-12-23T11:35:30.071Z,8.73
2018-12-23T11:38:02.185Z,8.33
2018-12-23T11:40:34.847Z,8.80
2018-12-23T11:43:10.062Z,7.87
2018-12-23T11:45:41.908Z,7.30
2018-12-23T11:48:13.486Z,7.30
2018-12-23T11:50:45.021Z,7.93
2018-12-23T11:53:16.197Z,7.73
2018-12-23T11:55:48.692Z,7.53
2018-12-23T11:58:20.334Z,7.60
2018-12-23T12:00:51.971Z,7.27
2018-12-23T12:03:24.228Z,6.83
2018-12-23T12:05:55.477Z,6.67
2018-12-23T12:08:27.371Z,6.70
2018-12-23T12:10:58.812Z,6.27
2018-12-23T12:13:29.934Z,7.57
2018-12-23T12:16:00.771Z,6.67
2018-12-23T12:18:31.707Z,6.67
2018-12-23T12:21:02.905Z,6.67
2018-12-23T12:23:34.306Z,5.70
2018-12-23T12:26:05.626Z,5.80
2018-12-23T12:28:36.861Z,6.60
2018-12-23T12:31:08.377Z,5.93
2018-12-23T12:33:39.796Z,5.50
2018-12-23T12:36:10.811Z,6.60
2018-12-23T12:38:42.774Z,6.37
2018-12-23T12:41:14.275Z,6.73
2018-12-23T12:43:45.605Z,6.43
2018-12-23T12:46:16.774Z,6.60
2018-12-23T12:48:48.765Z,6.77
2018-12-23T12:51:21.591Z,6.57
2018-12-23T12:53:53.858Z,6.47
2018-12-23T12:56:26.661Z,6.47
2018-12-23T12:58:59.002Z,7.33
2018-12-23T13:01:31.166Z,6.77
2018-12-23T13:04:02.259Z,7.57
2018-12-23T13:06:33.152Z,6.80
2018-12-23T13:09:05.531Z,7.20
2018-12-23T13:11:37.499Z,7.73
2018-12-23T13:14:08.569Z,7.50
2018-12-23T13:16:40.096Z,7.43
2018-12-23T13:19:12.457Z,7.70
2018-12-23T13:21:43.592Z,6.00
2018-12-23T13:24:15.999Z,6.20
2018-12-23T13:26:47.671Z,6.67
2018-12-23T13:29:19.054Z,7.10
2018-12-23T13:31:51.609Z,6.07
2018-12-23T13:34:23.388Z,4.70
2018-12-23T13:36:55.702Z,4.50
2018-12-23T13:39:27.005Z,4.30
2018-12-23T13:42:38.110Z,4.30
2018-12-23T13:46:04.409Z,4.70
2018-12-23T13:51:00.061Z,3.87
2018-12-23T13:55:49.590Z,4.50
2018-12-23T13:58:35.582Z,4.23
2018-12-23T14:02:23.325Z,4.20
2018-12-23T14:05:22.626Z,4.30
2018-12-23T14:08:17.349Z,3.77
2018-12-23T14:11:58.017Z,3.83
2018-12-23T14:14:29.373Z,3.53
2018-12-23T14:17:00.846Z,3.77
2018-12-23T14:19:32.641Z,4.00
2018-12-23T14:22:03.559Z,4.30
2018-12-23T14:24:34.861Z,4.47
2018-12-23T14:27:06.711Z,4.53
2018-12-23T14:29:37.783Z,6.47
2018-12-23T14:32:09.140Z,5.93
2018-12-23T14:34:40.273Z,4.60
2018-12-23T14:37:11.537Z,6.20
2018-12-23T14:39:43.354Z,6.33
2018-12-23T14:42:14.578Z,6.27
2018-12-23T14:44:46.831Z,7.90
2018-12-23T14:47:18.474Z,8.90
2018-12-23T14:49:50.471Z,11.77
2018-12-23T14:52:22.019Z,10.30
2018-12-23T14:54:53.646Z,8.20
2018-12-23T14:57:25.129Z,6.43
2018-12-23T14:59:56.469Z,5.93
2018-12-23T15:02:27.667Z,6.47
2018-12-23T15:04:59.329Z,6.00
2018-12-23T15:07:30.428Z,5.80
2018-12-23T15:10:01.322Z,5.93
2018-12-23T15:12:32.296Z,5.53
2018-12-23T15:15:03.131Z,6.30
2018-12-23T15:17:34.453Z,6.50
2018-12-23T15:20:06.639Z,6.13
2018-12-23T15:22:38.027Z,6.03
2018-12-23T15:25:09.241Z,5.83
2018-12-23T15:27:40.085Z,6.03
2018-12-23T15:30:11.605Z,6.53
2018-12-23T15:32:42.717Z,6.90
2018-12-23T15:35:14.643Z,6.87
2018-12-23T15:37:46.216Z,7.60
2018-12-23T15:40:17.242Z,7.37
2018-12-23T15:42:51.207Z,7.60
2018-12-23T15:45:22.588Z,8.03
2018-12-23T15:47:53.951Z,8.97
2018-12-23T15:50:24.986Z,9.10
2018-12-23T15:52:56.791Z,9.60
2018-12-23T15:55:28.732Z,9.23
2018-12-23T15:58:38.057Z,12.93
2018-12-23T16:01:09.785Z,21.93
2018-12-23T16:03:42.617Z,29.77
2018-12-23T16:06:14.306Z,16.20
2018-12-23T16:08:46.020Z,15.47
2018-12-23T16:11:17.753Z,14.70
2018-12-23T16:13:49.701Z,12.53
2018-12-23T16:16:22.692Z,10.83
2018-12-23T16:18:54.753Z,10.70
2018-12-23T16:21:26.525Z,11.73
2018-12-23T16:23:58.182Z,12.27
2018-12-23T16:26:30.511Z,10.10
2018-12-23T16:29:02.962Z,8.93
2018-12-23T16:31:34.888Z,9.27
2018-12-23T16:34:07.251Z,8.13
2018-12-23T16:36:39.432Z,7.33
2018-12-23T16:39:11.775Z,7.27
2018-12-23T16:41:43.514Z,6.70
2018-12-23T16:44:15.539Z,7.67
2018-12-23T16:46:47.385Z,7.23
2018-12-23T16:49:19.183Z,6.37
2018-12-23T16:51:51.566Z,6.20
2018-12-23T16:54:24.179Z,5.80
2018-12-23T16:56:59.605Z,5.20
2018-12-23T16:59:32.080Z,6.40
2018-12-23T17:02:04.327Z,6.37
2018-12-23T17:04:37.182Z,5.87
2018-12-23T17:07:09.535Z,5.80
2018-12-23T17:09:41.649Z,7.70
2018-12-23T17:12:13.914Z,15.27
2018-12-23T17:14:48.344Z,10.73
2018-12-23T17:17:20.175Z,16.93
2018-12-23T17:19:52.528Z,12.10
2018-12-23T17:22:24.839Z,10.97
2018-12-23T17:24:57.156Z,12.17
2018-12-23T17:27:29.889Z,6.07
2018-12-23T17:30:02.423Z,6.73
2018-12-23T17:32:37.726Z,9.33
2018-12-23T17:35:10.027Z,16.53
2018-12-23T17:37:43.175Z,18.43
2018-12-23T17:40:16.583Z,12.50
2018-12-23T17:42:49.917Z,19.60
2018-12-23T17:45:22.890Z,17.03
2018-12-23T17:47:55.151Z,14.20
2018-12-23T17:50:27.771Z,14.33
2018-12-23T17:53:01.877Z,10.00
2018-12-23T17:55:34.814Z,15.97
2018-12-23T17:58:07.840Z,8.63
2018-12-23T18:00:40.931Z,15.63
2018-12-23T18:03:12.671Z,19.60
2018-12-23T18:05:45.604Z,21.40
2018-12-23T18:08:17.250Z,19.13
2018-12-23T18:10:51.925Z,17.17
2018-12-23T18:13:23.921Z,27.10
2018-12-23T18:15:57.734Z,30.93
2018-12-23T18:18:30.334Z,29.87
2018-12-23T18:21:02.639Z,25.40
2018-12-23T18:23:36.535Z,26.87
2018-12-23T18:26:08.543Z,11.60
2018-12-23T18:28:40.433Z,8.73
2018-12-23T18:31:12.353Z,7.70
2018-12-23T18:33:44.267Z,13.07
2018-12-23T18:36:18.173Z,21.57
2018-12-23T18:38:50.422Z,24.60
2018-12-23T18:41:22.981Z,31.53
2018-12-23T18:43:55.019Z,17.57
2018-12-23T18:46:26.974Z,29.23
2018-12-23T18:48:58.736Z,24.03
2018-12-23T18:51:30.508Z,24.07
2018-12-23T18:54:02.428Z,22.77
2018-12-23T18:56:46.922Z,28.27
2018-12-23T18:59:22.057Z,34.20
2018-12-23T19:02:09.889Z,41.83
2018-12-23T19:04:42.228Z,35.43
2018-12-23T19:07:14.482Z,29.07
2018-12-23T19:10:17.097Z,31.80
2018-12-23T19:14:00.454Z,25.63
2018-12-23T19:17:32.691Z,28.40
2018-12-23T19:21:16.157Z,34.27
2018-12-23T19:24:39.471Z,24.93
2018-12-23T19:28:41.565Z,17.80
2018-12-23T19:32:18.051Z,21.37
2018-12-23T19:35:48.308Z,16.63
2018-12-23T19:39:06.840Z,17.57
2018-12-23T19:42:29.321Z,13.77
2018-12-23T19:45:51.097Z,15.37
2018-12-23T19:49:17.444Z,12.00
2018-12-23T19:53:03.133Z,15.37
2018-12-23T19:56:37.001Z,17.17
2018-12-23T19:59:56.384Z,16.70
2018-12-23T20:03:19.489Z,18.40
2018-12-23T20:06:46.146Z,18.97
2018-12-23T20:10:03.866Z,21.30
2018-12-23T20:13:45.054Z,27.07
2018-12-23T20:17:26.557Z,35.93
2018-12-23T20:21:24.641Z,30.43
2018-12-23T20:24:43.681Z,31.03
2018-12-23T20:27:55.141Z,35.57
2018-12-23T20:31:18.320Z,37.13
2018-12-23T20:34:59.717Z,37.40
2018-12-23T20:38:14.797Z,38.23
2018-12-23T20:42:07.519Z,39.90
2018-12-23T20:45:47.778Z,35.77
2018-12-23T20:49:12.888Z,44.17
2018-12-23T20:53:01.956Z,36.50
2018-12-23T20:56:34.833Z,36.70
2018-12-23T20:59:54.413Z,25.20
2018-12-23T21:03:24.791Z,27.70
2018-12-23T21:06:49.790Z,32.33
2018-12-23T21:10:07.614Z,39.63
2018-12-23T21:13:46.300Z,36.87
2018-12-23T21:17:16.124Z,38.43
2018-12-23T21:20:43.075Z,27.07
2018-12-23T21:24:16.385Z,22.83
2018-12-23T21:28:07.454Z,28.63
2018-12-23T21:31:32.266Z,29.70
2018-12-23T21:34:51.186Z,33.20
2018-12-23T21:38:29.145Z,29.37
2018-12-23T21:42:03.130Z,21.43
2018-12-23T21:45:24.547Z,20.50
2018-12-23T21:49:07.656Z,19.40
2018-12-23T21:52:28.268Z,26.43
2018-12-23T21:56:14.529Z,26.80
2018-12-23T21:59:43.582Z,19.47
2018-12-23T22:03:39.352Z,43.67
2018-12-23T22:07:00.791Z,24.77
2018-12-23T22:10:42.143Z,29.37
2018-12-23T22:13:40.772Z,23.73
2018-12-23T22:16:30.548Z,32.63
2018-12-23T22:19:09.698Z,29.07
2018-12-23T22:21:47.419Z,28.30
2018-12-23T22:24:25.849Z,28.10
2018-12-23T22:27:05.897Z,30.30
2018-12-23T22:29:42.511Z,34.17
2018-12-23T22:32:19.817Z,40.90
2018-12-23T22:34:55.386Z,38.20
2018-12-23T22:37:32.498Z,36.23
2018-12-23T22:40:10.159Z,36.47
2018-12-23T22:42:48.566Z,36.87
2018-12-23T22:45:27.490Z,34.97
2018-12-23T22:48:14.367Z,33.10
2018-12-23T22:50:55.713Z,37.77
2018-12-23T22:53:32.949Z,41.87
2018-12-23T22:56:08.404Z,47.07
2018-12-23T22:58:47.085Z,34.63
2018-12-23T23:01:23.446Z,39.93
2018-12-23T23:03:57.835Z,32.63
2018-12-23T23:06:32.154Z,45.93
2018-12-23T23:09:10.679Z,33.27
2018-12-23T23:11:49.787Z,44.00
2018-12-23T23:14:23.656Z,38.83
2018-12-23T23:17:00.000Z,30.63
2018-12-23T23:19:34.675Z,35.70
2018-12-23T23:22:09.968Z,27.53
2018-12-23T23:24:44.855Z,24.50
2018-12-23T23:27:20.663Z,37.27
2018-12-23T23:29:55.442Z,41.10
2018-12-23T23:32:31.701Z,33.40
2018-12-23T23:35:11.674Z,33.93
2018-12-23T23:37:47.189Z,32.43
2018-12-23T23:40:20.870Z,32.97
2018-12-23T23:42:54.435Z,34.47
2018-12-23T23:45:30.689Z,33.37
2018-12-23T23:48:07.650Z,35.30
2018-12-23T23:50:42.806Z,34.50
2018-12-23T23:53:18.046Z,30.07
2018-12-23T23:55:54.082Z,31.93
2018-12-23T23:58:30.237Z,32.97
